sensor_id;sensor_type;location;lat;lon;timestamp;temperature;humidity
23731;DHT22;12046;44.702;10.622;2022-12-05T00:00:20;9.30;99.90
23731;DHT22;12046;44.702;10.622;2022-12-05T00:02:47;9.30;99.90
23731;DHT22;12046;44.702;10.622;2022-12-05T00:05:13;9.30;99.90
23731;DHT22;12046;44.702;10.622;2022-12-05T00:07:39;9.30;99.90
23731;DHT22;12046;44.702;10.622;2022-12-05T00:10:05;9.30;99.90
23731;DHT22;12046;44.702;10.622;2022-12-05T00:12:32;9.30;99.90
23731;DHT22;12046;44.702;10.622;2022-12-05T00:14:58;9.40;99.90
23731;DHT22;12046;44.702;10.622;2022-12-05T00:17:24;9.40;99.90
23731;DHT22;12046;44.702;10.622;2022-12-05T00:19:50;9.40;99.90
23731;DHT22;12046;44.702;10.622;2022-12-05T00:22:16;9.30;99.90
23731;DHT22;12046;44.702;10.622;2022-12-05T00:24:42;9.30;99.90
23731;DHT22;12046;44.702;10.622;2022-12-05T00:27:08;9.30;99.90
23731;DHT22;12046;44.702;10.622;2022-12-05T00:29:34;9.30;99.90
23731;DHT22;12046;44.702;10.622;2022-12-05T00:32:00;9.30;99.90
23731;DHT22;12046;44.702;10.622;2022-12-05T00:34:26;9.30;99.90
23731;DHT22;12046;44.702;10.622;2022-12-05T00:36:52;9.30;99.90
23731;DHT22;12046;44.702;10.622;2022-12-05T00:39:18;9.30;99.90
23731;DHT22;12046;44.702;10.622;2022-12-05T00:41:44;9.40;99.90
23731;DHT22;12046;44.702;10.622;2022-12-05T00:44:11;9.30;99.90
23731;DHT22;12046;44.702;10.622;2022-12-05T00:46:38;9.30;99.90
23731;DHT22;12046;44.702;10.622;2022-12-05T00:49:06;9.30;99.90
23731;DHT22;12046;44.702;10.622;2022-12-05T00:51:35;9.30;99.90
23731;DHT22;12046;44.702;10.622;2022-12-05T00:54:04;9.30;99.90
23731;DHT22;12046;44.702;10.622;2022-12-05T00:56:30;9.30;99.90
23731;DHT22;12046;44.702;10.622;2022-12-05T00:58:58;9.30;99.90
23731;DHT22;12046;44.702;10.622;2022-12-05T01:01:36;9.30;99.90
23731;DHT22;12046;44.702;10.622;2022-12-05T01:04:15;9.30;99.90
23731;DHT22;12046;44.702;10.622;2022-12-05T01:06:41;9.30;99.90
23731;DHT22;12046;44.702;10.622;2022-12-05T01:09:10;9.30;99.90
23731;DHT22;12046;44.702;10.622;2022-12-05T01:11:36;9.20;99.90
23731;DHT22;12046;44.702;10.622;2022-12-05T01:14:02;9.20;99.90
23731;DHT22;12046;44.702;10.622;2022-12-05T01:16:31;9.20;99.90
23731;DHT22;12046;44.702;10.622;2022-12-05T01:19:02;9.20;99.90
23731;DHT22;12046;44.702;10.622;2022-12-05T01:21:29;9.10;99.90
23731;DHT22;12046;44.702;10.622;2022-12-05T01:23:55;9.10;99.90
23731;DHT22;12046;44.702;10.622;2022-12-05T01:26:22;9.10;99.90
23731;DHT22;12046;44.702;10.622;2022-12-05T01:28:49;9.20;99.90
23731;DHT22;12046;44.702;10.622;2022-12-05T01:33:47;9.10;99.90
23731;DHT22;12046;44.702;10.622;2022-12-05T01:36:14;9.10;99.90
23731;DHT22;12046;44.702;10.622;2022-12-05T01:38:41;9.10;99.90
23731;DHT22;12046;44.702;10.622;2022-12-05T01:41:11;9.10;99.90
23731;DHT22;12046;44.702;10.622;2022-12-05T01:44:06;9.00;99.90
23731;DHT22;12046;44.702;10.622;2022-12-05T01:46:35;9.00;99.90
23731;DHT22;12046;44.702;10.622;2022-12-05T01:51:41;9.00;99.90
23731;DHT22;12046;44.702;10.622;2022-12-05T01:54:09;9.00;99.90
23731;DHT22;12046;44.702;10.622;2022-12-05T01:56:36;9.00;99.90
23731;DHT22;12046;44.702;10.622;2022-12-05T01:59:04;9.00;99.90
23731;DHT22;12046;44.702;10.622;2022-12-05T02:01:32;9.00;99.90
23731;DHT22;12046;44.702;10.622;2022-12-05T02:03:59;9.00;99.90
23731;DHT22;12046;44.702;10.622;2022-12-05T02:06:26;9.00;99.90
23731;DHT22;12046;44.702;10.622;2022-12-05T02:08:53;9.00;99.90
23731;DHT22;12046;44.702;10.622;2022-12-05T02:11:20;9.00;99.90
23731;DHT22;12046;44.702;10.622;2022-12-05T02:16:56;9.10;99.90
23731;DHT22;12046;44.702;10.622;2022-12-05T02:33:30;9.30;99.90
23731;DHT22;12046;44.702;10.622;2022-12-05T02:41:23;9.30;99.90
23731;DHT22;12046;44.702;10.622;2022-12-05T02:44:02;9.30;99.90
23731;DHT22;12046;44.702;10.622;2022-12-05T02:46:31;9.30;99.90
23731;DHT22;12046;44.702;10.622;2022-12-05T02:49:04;9.30;99.90
23731;DHT22;12046;44.702;10.622;2022-12-05T02:51:36;9.30;99.90
23731;DHT22;12046;44.702;10.622;2022-12-05T02:54:07;9.30;99.90
23731;DHT22;12046;44.702;10.622;2022-12-05T02:56:35;9.30;99.90
23731;DHT22;12046;44.702;10.622;2022-12-05T02:59:01;9.30;99.90
23731;DHT22;12046;44.702;10.622;2022-12-05T03:01:29;9.30;99.90
23731;DHT22;12046;44.702;10.622;2022-12-05T03:03:58;9.30;99.90
23731;DHT22;12046;44.702;10.622;2022-12-05T03:06:28;9.30;99.90
23731;DHT22;12046;44.702;10.622;2022-12-05T03:09:03;9.30;99.90
23731;DHT22;12046;44.702;10.622;2022-12-05T03:11:38;9.30;99.90
23731;DHT22;12046;44.702;10.622;2022-12-05T03:14:10;9.30;99.90
23731;DHT22;12046;44.702;10.622;2022-12-05T03:16:44;9.30;99.90
23731;DHT22;12046;44.702;10.622;2022-12-05T03:19:14;9.40;99.90
23731;DHT22;12046;44.702;10.622;2022-12-05T03:22:08;9.30;99.90
23731;DHT22;12046;44.702;10.622;2022-12-05T03:24:34;9.30;99.90
23731;DHT22;12046;44.702;10.622;2022-12-05T03:29:49;9.30;99.90
23731;DHT22;12046;44.702;10.622;2022-12-05T03:40:23;9.30;99.90
23731;DHT22;12046;44.702;10.622;2022-12-05T03:50:57;9.30;99.90
23731;DHT22;12046;44.702;10.622;2022-12-05T03:53:27;9.30;99.90
23731;DHT22;12046;44.702;10.622;2022-12-05T03:56:19;9.30;99.90
23731;DHT22;12046;44.702;10.622;2022-12-05T03:59:03;9.30;99.90
23731;DHT22;12046;44.702;10.622;2022-12-05T04:01:30;9.30;99.90
23731;DHT22;12046;44.702;10.622;2022-12-05T04:04:20;9.40;99.90
23731;DHT22;12046;44.702;10.622;2022-12-05T04:06:49;9.30;99.90
23731;DHT22;12046;44.702;10.622;2022-12-05T04:09:27;9.40;99.90
23731;DHT22;12046;44.702;10.622;2022-12-05T04:12:02;9.40;99.90
23731;DHT22;12046;44.702;10.622;2022-12-05T04:14:39;9.40;99.90
23731;DHT22;12046;44.702;10.622;2022-12-05T04:17:17;9.40;99.90
23731;DHT22;12046;44.702;10.622;2022-12-05T04:19:46;9.40;99.90
23731;DHT22;12046;44.702;10.622;2022-12-05T04:22:32;9.40;99.90
23731;DHT22;12046;44.702;10.622;2022-12-05T04:24:59;9.40;99.90
23731;DHT22;12046;44.702;10.622;2022-12-05T04:30:39;9.30;99.90
23731;DHT22;12046;44.702;10.622;2022-12-05T04:33:14;9.30;99.90
23731;DHT22;12046;44.702;10.622;2022-12-05T04:36:02;9.30;99.90
23731;DHT22;12046;44.702;10.622;2022-12-05T04:38:40;9.30;99.90
23731;DHT22;12046;44.702;10.622;2022-12-05T04:41:15;9.30;99.90
23731;DHT22;12046;44.702;10.622;2022-12-05T04:43:45;9.30;99.90
23731;DHT22;12046;44.702;10.622;2022-12-05T04:46:14;9.30;99.90
23731;DHT22;12046;44.702;10.622;2022-12-05T04:48:44;9.30;99.90
23731;DHT22;12046;44.702;10.622;2022-12-05T04:51:18;9.30;99.90
23731;DHT22;12046;44.702;10.622;2022-12-05T04:53:45;9.30;99.90
23731;DHT22;12046;44.702;10.622;2022-12-05T04:56:15;9.30;99.90
23731;DHT22;12046;44.702;10.622;2022-12-05T04:58:43;9.30;99.90
23731;DHT22;12046;44.702;10.622;2022-12-05T05:01:22;9.30;99.90
23731;DHT22;12046;44.702;10.622;2022-12-05T05:04:16;9.30;99.90
23731;DHT22;12046;44.702;10.622;2022-12-05T05:06:44;9.30;99.90
23731;DHT22;12046;44.702;10.622;2022-12-05T05:09:10;9.30;99.90
23731;DHT22;12046;44.702;10.622;2022-12-05T05:11:36;9.30;99.90
23731;DHT22;12046;44.702;10.622;2022-12-05T05:14:02;9.30;99.90
23731;DHT22;12046;44.702;10.622;2022-12-05T05:16:39;9.30;99.90
23731;DHT22;12046;44.702;10.622;2022-12-05T05:19:07;9.30;99.90
23731;DHT22;12046;44.702;10.622;2022-12-05T05:21:42;9.30;99.90
23731;DHT22;12046;44.702;10.622;2022-12-05T05:24:10;9.30;99.90
23731;DHT22;12046;44.702;10.622;2022-12-05T05:26:41;9.30;99.90
23731;DHT22;12046;44.702;10.622;2022-12-05T05:29:07;9.40;99.90
23731;DHT22;12046;44.702;10.622;2022-12-05T05:31:35;9.40;99.90
23731;DHT22;12046;44.702;10.622;2022-12-05T05:34:01;9.30;99.90
23731;DHT22;12046;44.702;10.622;2022-12-05T05:36:27;9.30;99.90
23731;DHT22;12046;44.702;10.622;2022-12-05T05:38:55;9.30;99.90
23731;DHT22;12046;44.702;10.622;2022-12-05T05:41:27;9.30;99.90
23731;DHT22;12046;44.702;10.622;2022-12-05T05:43:54;9.30;99.90
23731;DHT22;12046;44.702;10.622;2022-12-05T05:46:22;9.30;99.90
23731;DHT22;12046;44.702;10.622;2022-12-05T05:48:49;9.30;99.90
23731;DHT22;12046;44.702;10.622;2022-12-05T05:51:16;9.30;99.90
23731;DHT22;12046;44.702;10.622;2022-12-05T05:53:42;9.30;99.90
23731;DHT22;12046;44.702;10.622;2022-12-05T05:56:14;9.30;99.90
23731;DHT22;12046;44.702;10.622;2022-12-05T05:58:40;9.30;99.90
23731;DHT22;12046;44.702;10.622;2022-12-05T06:01:12;9.30;99.90
23731;DHT22;12046;44.702;10.622;2022-12-05T06:03:39;9.20;99.90
23731;DHT22;12046;44.702;10.622;2022-12-05T06:06:08;9.20;99.90
23731;DHT22;12046;44.702;10.622;2022-12-05T06:08:37;9.30;99.90
23731;DHT22;12046;44.702;10.622;2022-12-05T06:11:08;9.20;99.90
23731;DHT22;12046;44.702;10.622;2022-12-05T06:13:35;9.20;99.90
23731;DHT22;12046;44.702;10.622;2022-12-05T06:16:04;9.30;99.90
23731;DHT22;12046;44.702;10.622;2022-12-05T06:18:36;9.20;99.90
23731;DHT22;12046;44.702;10.622;2022-12-05T06:21:03;9.30;99.90
23731;DHT22;12046;44.702;10.622;2022-12-05T06:23:34;9.30;99.90
23731;DHT22;12046;44.702;10.622;2022-12-05T06:26:00;9.30;99.90
23731;DHT22;12046;44.702;10.622;2022-12-05T06:28:27;9.30;99.90
23731;DHT22;12046;44.702;10.622;2022-12-05T06:30:53;9.30;99.90
23731;DHT22;12046;44.702;10.622;2022-12-05T06:33:19;9.30;99.90
23731;DHT22;12046;44.702;10.622;2022-12-05T06:35:45;9.30;99.90
23731;DHT22;12046;44.702;10.622;2022-12-05T06:38:11;9.30;99.90
23731;DHT22;12046;44.702;10.622;2022-12-05T06:40:41;9.30;99.90
23731;DHT22;12046;44.702;10.622;2022-12-05T06:43:07;9.30;99.90
23731;DHT22;12046;44.702;10.622;2022-12-05T06:45:36;9.30;99.90
23731;DHT22;12046;44.702;10.622;2022-12-05T06:48:02;9.30;99.90
23731;DHT22;12046;44.702;10.622;2022-12-05T06:50:28;9.30;99.90
23731;DHT22;12046;44.702;10.622;2022-12-05T06:52:54;9.30;99.90
23731;DHT22;12046;44.702;10.622;2022-12-05T06:55:19;9.40;99.90
23731;DHT22;12046;44.702;10.622;2022-12-05T06:57:45;9.40;99.90
23731;DHT22;12046;44.702;10.622;2022-12-05T07:00:12;9.40;99.90
23731;DHT22;12046;44.702;10.622;2022-12-05T07:02:57;9.40;99.90
23731;DHT22;12046;44.702;10.622;2022-12-05T07:05:23;9.40;99.90
23731;DHT22;12046;44.702;10.622;2022-12-05T07:07:49;9.40;99.90
23731;DHT22;12046;44.702;10.622;2022-12-05T07:10:15;9.40;99.90
23731;DHT22;12046;44.702;10.622;2022-12-05T07:12:41;9.40;99.90
23731;DHT22;12046;44.702;10.622;2022-12-05T07:15:07;9.50;99.90
23731;DHT22;12046;44.702;10.622;2022-12-05T07:17:37;9.50;99.90
23731;DHT22;12046;44.702;10.622;2022-12-05T07:20:05;9.50;99.90
23731;DHT22;12046;44.702;10.622;2022-12-05T07:22:35;9.50;99.90
23731;DHT22;12046;44.702;10.622;2022-12-05T07:25:01;9.50;99.90
23731;DHT22;12046;44.702;10.622;2022-12-05T07:27:28;9.50;99.90
23731;DHT22;12046;44.702;10.622;2022-12-05T07:29:54;9.50;99.90
23731;DHT22;12046;44.702;10.622;2022-12-05T07:32:20;9.50;99.90
23731;DHT22;12046;44.702;10.622;2022-12-05T07:34:46;9.50;99.90
23731;DHT22;12046;44.702;10.622;2022-12-05T07:37:12;9.50;99.90
23731;DHT22;12046;44.702;10.622;2022-12-05T07:39:38;9.50;99.90
23731;DHT22;12046;44.702;10.622;2022-12-05T07:42:04;9.50;99.90
23731;DHT22;12046;44.702;10.622;2022-12-05T07:44:31;9.40;99.90
23731;DHT22;12046;44.702;10.622;2022-12-05T07:46:57;9.40;99.90
23731;DHT22;12046;44.702;10.622;2022-12-05T07:49:23;9.30;99.90
23731;DHT22;12046;44.702;10.622;2022-12-05T07:51:50;9.40;99.90
23731;DHT22;12046;44.702;10.622;2022-12-05T07:54:15;9.30;99.90
23731;DHT22;12046;44.702;10.622;2022-12-05T07:56:41;9.30;99.90
23731;DHT22;12046;44.702;10.622;2022-12-05T07:59:07;9.30;99.90
23731;DHT22;12046;44.702;10.622;2022-12-05T08:01:33;9.40;99.90
23731;DHT22;12046;44.702;10.622;2022-12-05T08:04:01;9.50;99.90
23731;DHT22;12046;44.702;10.622;2022-12-05T08:06:29;9.50;99.90
23731;DHT22;12046;44.702;10.622;2022-12-05T08:08:56;9.50;99.90
23731;DHT22;12046;44.702;10.622;2022-12-05T08:11:25;9.60;99.90
23731;DHT22;12046;44.702;10.622;2022-12-05T08:13:52;9.70;99.90
23731;DHT22;12046;44.702;10.622;2022-12-05T08:16:21;9.60;99.90
23731;DHT22;12046;44.702;10.622;2022-12-05T08:18:47;9.50;99.90
23731;DHT22;12046;44.702;10.622;2022-12-05T08:21:18;9.50;99.90
23731;DHT22;12046;44.702;10.622;2022-12-05T08:23:44;9.40;99.90
23731;DHT22;12046;44.702;10.622;2022-12-05T08:26:13;9.40;99.90
23731;DHT22;12046;44.702;10.622;2022-12-05T08:28:40;9.50;99.90
23731;DHT22;12046;44.702;10.622;2022-12-05T08:33:44;9.60;99.90
23731;DHT22;12046;44.702;10.622;2022-12-05T08:36:14;9.60;99.90
23731;DHT22;12046;44.702;10.622;2022-12-05T08:38:41;9.70;99.90
23731;DHT22;12046;44.702;10.622;2022-12-05T08:41:10;9.70;99.90
23731;DHT22;12046;44.702;10.622;2022-12-05T08:43:38;9.70;99.90
23731;DHT22;12046;44.702;10.622;2022-12-05T08:46:05;9.60;99.90
23731;DHT22;12046;44.702;10.622;2022-12-05T08:48:32;9.60;99.90
23731;DHT22;12046;44.702;10.622;2022-12-05T08:51:04;9.60;99.90
23731;DHT22;12046;44.702;10.622;2022-12-05T08:53:32;9.60;99.90
23731;DHT22;12046;44.702;10.622;2022-12-05T08:56:02;9.60;99.90
23731;DHT22;12046;44.702;10.622;2022-12-05T09:27:36;9.60;99.90
23731;DHT22;12046;44.702;10.622;2022-12-05T09:30:03;9.60;99.90
23731;DHT22;12046;44.702;10.622;2022-12-05T09:32:29;9.60;99.90
23731;DHT22;12046;44.702;10.622;2022-12-05T09:34:55;9.60;99.90
23731;DHT22;12046;44.702;10.622;2022-12-05T09:37:25;9.70;99.90
23731;DHT22;12046;44.702;10.622;2022-12-05T09:39:51;9.80;99.90
23731;DHT22;12046;44.702;10.622;2022-12-05T09:42:37;9.90;99.90
23731;DHT22;12046;44.702;10.622;2022-12-05T10:04:58;10.00;99.90
23731;DHT22;12046;44.702;10.622;2022-12-05T10:10:31;10.10;99.90
23731;DHT22;12046;44.702;10.622;2022-12-05T10:15:56;10.10;99.90
23731;DHT22;12046;44.702;10.622;2022-12-05T10:18:44;10.10;99.90
23731;DHT22;12046;44.702;10.622;2022-12-05T10:24:11;9.90;99.90
23731;DHT22;12046;44.702;10.622;2022-12-05T10:26:44;9.90;99.90
23731;DHT22;12046;44.702;10.622;2022-12-05T10:31:43;9.90;99.90
23731;DHT22;12046;44.702;10.622;2022-12-05T10:34:39;9.90;99.90
23731;DHT22;12046;44.702;10.622;2022-12-05T10:37:10;9.90;99.90
23731;DHT22;12046;44.702;10.622;2022-12-05T10:39:38;10.00;99.90
23731;DHT22;12046;44.702;10.622;2022-12-05T10:42:06;10.00;99.90
23731;DHT22;12046;44.702;10.622;2022-12-05T10:44:35;10.00;99.90
23731;DHT22;12046;44.702;10.622;2022-12-05T10:47:02;10.00;99.90
23731;DHT22;12046;44.702;10.622;2022-12-05T10:49:28;10.00;99.90
23731;DHT22;12046;44.702;10.622;2022-12-05T10:51:55;10.00;99.90
23731;DHT22;12046;44.702;10.622;2022-12-05T10:54:28;10.00;99.90
23731;DHT22;12046;44.702;10.622;2022-12-05T10:56:54;9.90;99.90
23731;DHT22;12046;44.702;10.622;2022-12-05T10:59:23;10.00;99.90
23731;DHT22;12046;44.702;10.622;2022-12-05T11:01:55;10.10;99.90
23731;DHT22;12046;44.702;10.622;2022-12-05T11:04:30;10.20;99.90
23731;DHT22;12046;44.702;10.622;2022-12-05T11:07:04;10.20;99.90
23731;DHT22;12046;44.702;10.622;2022-12-05T11:09:32;10.20;99.90
23731;DHT22;12046;44.702;10.622;2022-12-05T11:17:32;10.30;99.90
23731;DHT22;12046;44.702;10.622;2022-12-05T11:19:58;10.30;99.90
23731;DHT22;12046;44.702;10.622;2022-12-05T11:22:31;10.40;99.90
23731;DHT22;12046;44.702;10.622;2022-12-05T11:24:59;10.40;99.90
23731;DHT22;12046;44.702;10.622;2022-12-05T11:27:28;10.50;99.90
23731;DHT22;12046;44.702;10.622;2022-12-05T11:32:27;10.60;99.90
23731;DHT22;12046;44.702;10.622;2022-12-05T11:40:15;10.60;99.90
23731;DHT22;12046;44.702;10.622;2022-12-05T11:46:08;10.30;99.90
23731;DHT22;12046;44.702;10.622;2022-12-05T11:56:57;10.20;99.90
23731;DHT22;12046;44.702;10.622;2022-12-05T12:05:28;10.10;99.90
23731;DHT22;12046;44.702;10.622;2022-12-05T12:08:25;10.10;99.90
23731;DHT22;12046;44.702;10.622;2022-12-05T12:16:12;9.90;99.90
23731;DHT22;12046;44.702;10.622;2022-12-05T12:27:13;9.60;99.90
23731;DHT22;12046;44.702;10.622;2022-12-05T12:38:15;10.00;99.90
23731;DHT22;12046;44.702;10.622;2022-12-05T12:49:23;10.50;99.90
23731;DHT22;12046;44.702;10.622;2022-12-05T12:51:56;10.50;99.90
23731;DHT22;12046;44.702;10.622;2022-12-05T13:03:09;10.30;99.90
23731;DHT22;12046;44.702;10.622;2022-12-05T13:10:49;10.30;99.90
23731;DHT22;12046;44.702;10.622;2022-12-05T13:13:19;10.30;99.90
23731;DHT22;12046;44.702;10.622;2022-12-05T13:15:51;10.30;99.90
23731;DHT22;12046;44.702;10.622;2022-12-05T13:18:19;10.30;99.90
23731;DHT22;12046;44.702;10.622;2022-12-05T13:20:48;10.20;99.90
23731;DHT22;12046;44.702;10.622;2022-12-05T13:23:20;10.20;99.90
23731;DHT22;12046;44.702;10.622;2022-12-05T13:25:47;10.20;99.90
23731;DHT22;12046;44.702;10.622;2022-12-05T13:28:37;10.10;99.90
23731;DHT22;12046;44.702;10.622;2022-12-05T13:31:08;10.00;99.90
23731;DHT22;12046;44.702;10.622;2022-12-05T13:33:48;10.10;99.90
23731;DHT22;12046;44.702;10.622;2022-12-05T13:36:18;10.00;99.90
23731;DHT22;12046;44.702;10.622;2022-12-05T13:39:23;10.10;99.90
23731;DHT22;12046;44.702;10.622;2022-12-05T13:42:25;10.10;99.90
23731;DHT22;12046;44.702;10.622;2022-12-05T13:45:17;10.10;99.90
23731;DHT22;12046;44.702;10.622;2022-12-05T13:53:17;10.20;99.90
23731;DHT22;12046;44.702;10.622;2022-12-05T13:55:59;10.20;99.90
23731;DHT22;12046;44.702;10.622;2022-12-05T13:58:33;10.20;99.90
23731;DHT22;12046;44.702;10.622;2022-12-05T14:17:40;10.20;99.90
23731;DHT22;12046;44.702;10.622;2022-12-05T14:31:41;10.30;99.90
23731;DHT22;12046;44.702;10.622;2022-12-05T14:39:53;10.30;99.90
23731;DHT22;12046;44.702;10.622;2022-12-05T14:42:28;10.20;99.90
23731;DHT22;12046;44.702;10.622;2022-12-05T14:44:58;10.30;99.90
23731;DHT22;12046;44.702;10.622;2022-12-05T14:47:26;10.30;99.90
23731;DHT22;12046;44.702;10.622;2022-12-05T14:52:40;10.20;99.90
23731;DHT22;12046;44.702;10.622;2022-12-05T14:55:11;10.20;99.90
23731;DHT22;12046;44.702;10.622;2022-12-05T14:57:48;10.20;99.90
23731;DHT22;12046;44.702;10.622;2022-12-05T15:00:20;10.20;99.90
23731;DHT22;12046;44.702;10.622;2022-12-05T15:02:50;10.20;99.90
23731;DHT22;12046;44.702;10.622;2022-12-05T15:05:21;10.20;99.90
23731;DHT22;12046;44.702;10.622;2022-12-05T15:07:49;10.10;99.90
23731;DHT22;12046;44.702;10.622;2022-12-05T15:10:22;10.10;99.90
23731;DHT22;12046;44.702;10.622;2022-12-05T15:12:49;10.10;99.90
23731;DHT22;12046;44.702;10.622;2022-12-05T15:18:38;10.10;99.90
23731;DHT22;12046;44.702;10.622;2022-12-05T15:21:28;10.10;99.90
23731;DHT22;12046;44.702;10.622;2022-12-05T15:23:59;10.10;99.90
23731;DHT22;12046;44.702;10.622;2022-12-05T15:26:31;10.00;99.90
23731;DHT22;12046;44.702;10.622;2022-12-05T15:29:09;10.00;99.90
23731;DHT22;12046;44.702;10.622;2022-12-05T15:31:43;10.10;99.90
23731;DHT22;12046;44.702;10.622;2022-12-05T15:34:21;10.00;99.90
23731;DHT22;12046;44.702;10.622;2022-12-05T15:36:55;10.00;99.90
23731;DHT22;12046;44.702;10.622;2022-12-05T15:39:24;10.00;99.90
23731;DHT22;12046;44.702;10.622;2022-12-05T15:41:54;9.90;99.90
23731;DHT22;12046;44.702;10.622;2022-12-05T15:44:22;9.90;99.90
23731;DHT22;12046;44.702;10.622;2022-12-05T15:46:54;9.90;99.90
23731;DHT22;12046;44.702;10.622;2022-12-05T15:49:23;9.80;99.90
23731;DHT22;12046;44.702;10.622;2022-12-05T15:51:59;9.80;99.90
23731;DHT22;12046;44.702;10.622;2022-12-05T15:54:32;9.80;99.90
23731;DHT22;12046;44.702;10.622;2022-12-05T15:57:09;9.80;99.90
23731;DHT22;12046;44.702;10.622;2022-12-05T15:59:42;9.80;99.90
23731;DHT22;12046;44.702;10.622;2022-12-05T16:02:23;9.90;99.90
23731;DHT22;12046;44.702;10.622;2022-12-05T16:04:54;9.80;99.90
23731;DHT22;12046;44.702;10.622;2022-12-05T16:07:27;9.80;99.90
23731;DHT22;12046;44.702;10.622;2022-12-05T16:24:27;9.90;99.90
23731;DHT22;12046;44.702;10.622;2022-12-05T16:27:16;9.80;99.90
23731;DHT22;12046;44.702;10.622;2022-12-05T16:29:45;9.90;99.90
23731;DHT22;12046;44.702;10.622;2022-12-05T16:35:28;9.80;99.90
23731;DHT22;12046;44.702;10.622;2022-12-05T16:38:12;9.90;99.90
23731;DHT22;12046;44.702;10.622;2022-12-05T16:40:41;9.80;99.90
23731;DHT22;12046;44.702;10.622;2022-12-05T16:52:29;9.80;99.90
23731;DHT22;12046;44.702;10.622;2022-12-05T16:55:28;9.80;99.90
23731;DHT22;12046;44.702;10.622;2022-12-05T16:58:21;9.80;99.90
23731;DHT22;12046;44.702;10.622;2022-12-05T17:01:18;9.80;99.90
23731;DHT22;12046;44.702;10.622;2022-12-05T17:04:16;9.80;99.90
23731;DHT22;12046;44.702;10.622;2022-12-05T17:07:08;9.80;99.90
23731;DHT22;12046;44.702;10.622;2022-12-05T17:09:53;9.90;99.90
23731;DHT22;12046;44.702;10.622;2022-12-05T17:12:39;9.80;99.90
23731;DHT22;12046;44.702;10.622;2022-12-05T17:15:16;9.90;99.90
23731;DHT22;12046;44.702;10.622;2022-12-05T17:17:45;9.90;99.90
23731;DHT22;12046;44.702;10.622;2022-12-05T17:20:12;9.90;99.90
23731;DHT22;12046;44.702;10.622;2022-12-05T17:22:39;9.90;99.90
23731;DHT22;12046;44.702;10.622;2022-12-05T17:27:46;9.90;99.90
23731;DHT22;12046;44.702;10.622;2022-12-05T17:30:12;9.90;99.90
23731;DHT22;12046;44.702;10.622;2022-12-05T17:32:38;9.90;99.90
23731;DHT22;12046;44.702;10.622;2022-12-05T17:35:15;9.90;99.90
23731;DHT22;12046;44.702;10.622;2022-12-05T17:37:42;9.90;99.90
23731;DHT22;12046;44.702;10.622;2022-12-05T17:40:09;9.90;99.90
23731;DHT22;12046;44.702;10.622;2022-12-05T17:42:35;10.00;99.90
23731;DHT22;12046;44.702;10.622;2022-12-05T17:45:02;9.90;99.90
23731;DHT22;12046;44.702;10.622;2022-12-05T17:47:28;10.00;99.90
23731;DHT22;12046;44.702;10.622;2022-12-05T17:49:54;10.00;99.90
23731;DHT22;12046;44.702;10.622;2022-12-05T17:52:20;10.00;99.90
23731;DHT22;12046;44.702;10.622;2022-12-05T17:54:46;10.00;99.90
23731;DHT22;12046;44.702;10.622;2022-12-05T17:57:15;10.00;99.90
23731;DHT22;12046;44.702;10.622;2022-12-05T17:59:47;10.00;99.90
23731;DHT22;12046;44.702;10.622;2022-12-05T18:06:28;9.90;99.90
23731;DHT22;12046;44.702;10.622;2022-12-05T18:13:16;9.90;99.90
23731;DHT22;12046;44.702;10.622;2022-12-05T18:20:00;9.90;99.90
23731;DHT22;12046;44.702;10.622;2022-12-05T18:22:29;9.90;99.90
23731;DHT22;12046;44.702;10.622;2022-12-05T18:24:55;9.90;99.90
23731;DHT22;12046;44.702;10.622;2022-12-05T18:27:23;9.90;99.90
23731;DHT22;12046;44.702;10.622;2022-12-05T18:29:50;9.90;99.90
23731;DHT22;12046;44.702;10.622;2022-12-05T18:32:17;9.90;99.90
23731;DHT22;12046;44.702;10.622;2022-12-05T18:34:43;9.80;99.90
23731;DHT22;12046;44.702;10.622;2022-12-05T18:37:09;9.90;99.90
23731;DHT22;12046;44.702;10.622;2022-12-05T18:39:36;9.90;99.90
23731;DHT22;12046;44.702;10.622;2022-12-05T18:42:03;9.90;99.90
23731;DHT22;12046;44.702;10.622;2022-12-05T18:44:30;9.90;99.90
23731;DHT22;12046;44.702;10.622;2022-12-05T18:46:57;9.90;99.90
23731;DHT22;12046;44.702;10.622;2022-12-05T18:49:23;9.90;99.90
23731;DHT22;12046;44.702;10.622;2022-12-05T18:51:49;9.90;99.90
23731;DHT22;12046;44.702;10.622;2022-12-05T18:54:15;9.90;99.90
23731;DHT22;12046;44.702;10.622;2022-12-05T18:56:42;9.90;99.90
23731;DHT22;12046;44.702;10.622;2022-12-05T18:59:16;9.90;99.90
23731;DHT22;12046;44.702;10.622;2022-12-05T19:01:42;9.90;99.90
23731;DHT22;12046;44.702;10.622;2022-12-05T19:04:11;9.90;99.90
23731;DHT22;12046;44.702;10.622;2022-12-05T19:06:39;9.90;99.90
23731;DHT22;12046;44.702;10.622;2022-12-05T19:09:10;9.90;99.90
23731;DHT22;12046;44.702;10.622;2022-12-05T19:11:38;9.90;99.90
23731;DHT22;12046;44.702;10.622;2022-12-05T19:14:05;9.90;99.90
23731;DHT22;12046;44.702;10.622;2022-12-05T19:16:32;10.00;99.90
23731;DHT22;12046;44.702;10.622;2022-12-05T19:19:00;10.00;99.90
23731;DHT22;12046;44.702;10.622;2022-12-05T19:21:28;10.00;99.90
23731;DHT22;12046;44.702;10.622;2022-12-05T19:23:55;9.90;99.90
23731;DHT22;12046;44.702;10.622;2022-12-05T19:26:22;9.90;99.90
23731;DHT22;12046;44.702;10.622;2022-12-05T19:28:48;10.00;99.90
23731;DHT22;12046;44.702;10.622;2022-12-05T19:31:20;10.00;99.90
23731;DHT22;12046;44.702;10.622;2022-12-05T19:33:49;9.90;99.90
23731;DHT22;12046;44.702;10.622;2022-12-05T19:36:19;10.00;99.90
23731;DHT22;12046;44.702;10.622;2022-12-05T19:38:48;10.00;99.90
23731;DHT22;12046;44.702;10.622;2022-12-05T19:41:17;9.90;99.90
23731;DHT22;12046;44.702;10.622;2022-12-05T19:43:43;9.90;99.90
23731;DHT22;12046;44.702;10.622;2022-12-05T19:46:21;9.90;99.90
23731;DHT22;12046;44.702;10.622;2022-12-05T19:48:50;9.80;99.90
23731;DHT22;12046;44.702;10.622;2022-12-05T19:51:18;9.80;99.90
23731;DHT22;12046;44.702;10.622;2022-12-05T19:53:45;9.80;99.90
23731;DHT22;12046;44.702;10.622;2022-12-05T19:56:18;9.70;99.90
23731;DHT22;12046;44.702;10.622;2022-12-05T19:58:45;9.70;99.90
23731;DHT22;12046;44.702;10.622;2022-12-05T20:01:21;9.70;99.90
23731;DHT22;12046;44.702;10.622;2022-12-05T20:03:58;9.60;99.90
23731;DHT22;12046;44.702;10.622;2022-12-05T20:06:48;9.60;99.90
23731;DHT22;12046;44.702;10.622;2022-12-05T20:09:16;9.50;99.90
23731;DHT22;12046;44.702;10.622;2022-12-05T20:11:43;9.40;99.90
23731;DHT22;12046;44.702;10.622;2022-12-05T20:14:12;9.40;99.90
23731;DHT22;12046;44.702;10.622;2022-12-05T20:16:39;9.30;99.90
23731;DHT22;12046;44.702;10.622;2022-12-05T20:19:05;9.20;99.90
23731;DHT22;12046;44.702;10.622;2022-12-05T20:21:33;9.20;99.90
23731;DHT22;12046;44.702;10.622;2022-12-05T20:24:00;9.20;99.90